sensor_id;sensor_type;location;lat;lon;timestamp;temperature;humidity
22173;DHT22;11252;50.596;17.648;2023-04-24T00:00:30;13.00;92.20
22173;DHT22;11252;50.596;17.648;2023-04-24T00:02:58;13.00;92.20
22173;DHT22;11252;50.596;17.648;2023-04-24T00:05:26;13.00;92.20
22173;DHT22;11252;50.596;17.648;2023-04-24T00:07:54;13.00;92.20
22173;DHT22;11252;50.596;17.648;2023-04-24T00:10:22;13.00;92.20
22173;DHT22;11252;50.596;17.648;2023-04-24T00:12:49;13.00;92.20
22173;DHT22;11252;50.596;17.648;2023-04-24T00:15:17;13.00;92.20
22173;DHT22;11252;50.596;17.648;2023-04-24T00:17:44;13.00;92.20
22173;DHT22;11252;50.596;17.648;2023-04-24T00:20:12;13.00;92.20
22173;DHT22;11252;50.596;17.648;2023-04-24T00:22:40;12.90;92.20
22173;DHT22;11252;50.596;17.648;2023-04-24T00:25:08;12.90;92.20
22173;DHT22;11252;50.596;17.648;2023-04-24T00:27:35;12.90;92.20
22173;DHT22;11252;50.596;17.648;2023-04-24T00:30:04;12.80;92.20
22173;DHT22;11252;50.596;17.648;2023-04-24T00:32:32;12.80;92.20
22173;DHT22;11252;50.596;17.648;2023-04-24T00:34:59;12.80;92.20
22173;DHT22;11252;50.596;17.648;2023-04-24T00:37:26;12.80;92.20
22173;DHT22;11252;50.596;17.648;2023-04-24T00:39:54;12.80;92.20
22173;DHT22;11252;50.596;17.648;2023-04-24T00:42:22;12.80;92.20
22173;DHT22;11252;50.596;17.648;2023-04-24T00:44:50;12.80;92.20
22173;DHT22;11252;50.596;17.648;2023-04-24T00:47:19;12.80;92.20
22173;DHT22;11252;50.596;17.648;2023-04-24T00:49:46;12.80;92.20
22173;DHT22;11252;50.596;17.648;2023-04-24T00:52:13;12.80;92.20
22173;DHT22;11252;50.596;17.648;2023-04-24T00:54:44;12.90;92.20
22173;DHT22;11252;50.596;17.648;2023-04-24T00:57:14;12.90;92.20
22173;DHT22;11252;50.596;17.648;2023-04-24T00:59:43;12.90;92.20
22173;DHT22;11252;50.596;17.648;2023-04-24T01:02:11;13.00;92.20
22173;DHT22;11252;50.596;17.648;2023-04-24T01:04:39;13.10;92.20
22173;DHT22;11252;50.596;17.648;2023-04-24T01:07:08;13.20;92.20
22173;DHT22;11252;50.596;17.648;2023-04-24T01:09:40;13.40;92.20
22173;DHT22;11252;50.596;17.648;2023-04-24T01:12:09;13.40;92.20
22173;DHT22;11252;50.596;17.648;2023-04-24T01:14:41;13.50;92.20
22173;DHT22;11252;50.596;17.648;2023-04-24T01:17:08;13.60;92.20
22173;DHT22;11252;50.596;17.648;2023-04-24T01:19:36;13.70;92.20
22173;DHT22;11252;50.596;17.648;2023-04-24T01:22:15;13.70;92.20
22173;DHT22;11252;50.596;17.648;2023-04-24T01:24:43;13.70;92.20
22173;DHT22;11252;50.596;17.648;2023-04-24T01:27:11;13.80;92.20
22173;DHT22;11252;50.596;17.648;2023-04-24T01:29:39;13.80;92.20
22173;DHT22;11252;50.596;17.648;2023-04-24T01:32:07;13.90;92.20
22173;DHT22;11252;50.596;17.648;2023-04-24T01:34:34;13.90;92.20
22173;DHT22;11252;50.596;17.648;2023-04-24T01:37:01;13.90;92.20
22173;DHT22;11252;50.596;17.648;2023-04-24T01:39:29;13.90;92.20
22173;DHT22;11252;50.596;17.648;2023-04-24T01:41:56;13.90;92.20
22173;DHT22;11252;50.596;17.648;2023-04-24T01:44:24;13.90;92.20
22173;DHT22;11252;50.596;17.648;2023-04-24T01:46:51;13.90;92.20
22173;DHT22;11252;50.596;17.648;2023-04-24T01:49:21;13.90;92.20
22173;DHT22;11252;50.596;17.648;2023-04-24T01:51:48;13.90;92.20
22173;DHT22;11252;50.596;17.648;2023-04-24T01:54:15;13.90;92.20
22173;DHT22;11252;50.596;17.648;2023-04-24T01:56:43;14.00;92.20
22173;DHT22;11252;50.596;17.648;2023-04-24T01:59:11;14.00;92.10
22173;DHT22;11252;50.596;17.648;2023-04-24T02:01:39;14.00;92.20
22173;DHT22;11252;50.596;17.648;2023-04-24T02:04:07;14.00;92.20
22173;DHT22;11252;50.596;17.648;2023-04-24T02:06:36;14.00;92.00
22173;DHT22;11252;50.596;17.648;2023-04-24T02:09:03;14.00;91.90
22173;DHT22;11252;50.596;17.648;2023-04-24T02:11:31;14.00;91.80
22173;DHT22;11252;50.596;17.648;2023-04-24T02:13:58;14.00;91.40
22173;DHT22;11252;50.596;17.648;2023-04-24T02:16:29;14.00;91.30
22173;DHT22;11252;50.596;17.648;2023-04-24T02:19:00;14.10;91.50
22173;DHT22;11252;50.596;17.648;2023-04-24T02:21:27;14.10;91.00
22173;DHT22;11252;50.596;17.648;2023-04-24T02:23:54;14.10;91.10
22173;DHT22;11252;50.596;17.648;2023-04-24T02:26:22;14.10;90.60
22173;DHT22;11252;50.596;17.648;2023-04-24T02:28:50;14.00;90.70
22173;DHT22;11252;50.596;17.648;2023-04-24T02:31:17;14.10;90.50
22173;DHT22;11252;50.596;17.648;2023-04-24T02:33:44;14.00;90.50
22173;DHT22;11252;50.596;17.648;2023-04-24T02:36:12;14.00;90.50
22173;DHT22;11252;50.596;17.648;2023-04-24T02:38:40;14.00;90.40
22173;DHT22;11252;50.596;17.648;2023-04-24T02:41:07;14.00;89.90
22173;DHT22;11252;50.596;17.648;2023-04-24T02:43:34;14.10;89.70
22173;DHT22;11252;50.596;17.648;2023-04-24T02:46:02;14.00;89.50
22173;DHT22;11252;50.596;17.648;2023-04-24T02:48:30;14.00;89.60
22173;DHT22;11252;50.596;17.648;2023-04-24T02:50:57;14.00;89.60
22173;DHT22;11252;50.596;17.648;2023-04-24T02:53:24;14.00;89.10
22173;DHT22;11252;50.596;17.648;2023-04-24T02:55:52;14.00;89.20
22173;DHT22;11252;50.596;17.648;2023-04-24T02:58:19;14.00;89.40
22173;DHT22;11252;50.596;17.648;2023-04-24T03:00:47;14.10;89.50
22173;DHT22;11252;50.596;17.648;2023-04-24T03:03:14;14.10;89.80
22173;DHT22;11252;50.596;17.648;2023-04-24T03:05:42;14.10;89.30
22173;DHT22;11252;50.596;17.648;2023-04-24T03:08:09;14.10;89.60
22173;DHT22;11252;50.596;17.648;2023-04-24T03:10:41;14.10;89.70
22173;DHT22;11252;50.596;17.648;2023-04-24T03:13:08;14.00;89.50
22173;DHT22;11252;50.596;17.648;2023-04-24T03:15:36;14.00;89.70
22173;DHT22;11252;50.596;17.648;2023-04-24T03:18:03;14.00;89.70
22173;DHT22;11252;50.596;17.648;2023-04-24T03:20:30;14.00;89.60
22173;DHT22;11252;50.596;17.648;2023-04-24T03:22:58;13.90;88.80
22173;DHT22;11252;50.596;17.648;2023-04-24T03:25:25;13.90;88.60
22173;DHT22;11252;50.596;17.648;2023-04-24T03:27:52;14.00;88.30
22173;DHT22;11252;50.596;17.648;2023-04-24T03:30:21;14.00;88.10
22173;DHT22;11252;50.596;17.648;2023-04-24T03:32:48;14.00;87.70
22173;DHT22;11252;50.596;17.648;2023-04-24T03:35:16;14.00;87.90
22173;DHT22;11252;50.596;17.648;2023-04-24T03:37:43;14.00;87.70
22173;DHT22;11252;50.596;17.648;2023-04-24T03:40:11;14.00;87.70
22173;DHT22;11252;50.596;17.648;2023-04-24T03:42:38;14.00;87.60
22173;DHT22;11252;50.596;17.648;2023-04-24T03:45:06;14.00;87.70
22173;DHT22;11252;50.596;17.648;2023-04-24T03:47:34;13.90;87.90
22173;DHT22;11252;50.596;17.648;2023-04-24T03:50:01;13.90;87.60
22173;DHT22;11252;50.596;17.648;2023-04-24T03:52:28;13.90;87.40
22173;DHT22;11252;50.596;17.648;2023-04-24T03:54:56;14.00;87.50
22173;DHT22;11252;50.596;17.648;2023-04-24T03:57:23;13.90;87.70
22173;DHT22;11252;50.596;17.648;2023-04-24T03:59:50;13.90;87.50
22173;DHT22;11252;50.596;17.648;2023-04-24T04:02:18;13.90;87.50
22173;DHT22;11252;50.596;17.648;2023-04-24T04:04:45;13.90;87.20
22173;DHT22;11252;50.596;17.648;2023-04-24T04:07:13;13.90;87.00
22173;DHT22;11252;50.596;17.648;2023-04-24T04:09:40;14.00;86.80
22173;DHT22;11252;50.596;17.648;2023-04-24T04:12:08;14.00;86.20
22173;DHT22;11252;50.596;17.648;2023-04-24T04:14:35;14.00;86.00
22173;DHT22;11252;50.596;17.648;2023-04-24T04:17:02;14.00;85.80
22173;DHT22;11252;50.596;17.648;2023-04-24T04:19:30;14.00;86.30
22173;DHT22;11252;50.596;17.648;2023-04-24T04:22:01;14.00;86.00
22173;DHT22;11252;50.596;17.648;2023-04-24T04:24:29;14.10;85.40
22173;DHT22;11252;50.596;17.648;2023-04-24T04:26:57;14.10;84.90
22173;DHT22;11252;50.596;17.648;2023-04-24T04:29:25;14.20;85.20
22173;DHT22;11252;50.596;17.648;2023-04-24T04:31:53;14.20;84.70
22173;DHT22;11252;50.596;17.648;2023-04-24T04:34:22;14.20;85.10
22173;DHT22;11252;50.596;17.648;2023-04-24T04:36:49;14.20;85.20
22173;DHT22;11252;50.596;17.648;2023-04-24T04:39:17;14.20;84.70
22173;DHT22;11252;50.596;17.648;2023-04-24T04:41:45;14.20;84.80
22173;DHT22;11252;50.596;17.648;2023-04-24T04:44:16;14.20;84.50
22173;DHT22;11252;50.596;17.648;2023-04-24T04:46:43;14.20;85.10
22173;DHT22;11252;50.596;17.648;2023-04-24T04:49:11;14.10;85.00
22173;DHT22;11252;50.596;17.648;2023-04-24T04:51:38;14.10;85.20
22173;DHT22;11252;50.596;17.648;2023-04-24T04:54:08;14.10;84.70
22173;DHT22;11252;50.596;17.648;2023-04-24T04:56:36;14.20;84.40
22173;DHT22;11252;50.596;17.648;2023-04-24T04:59:06;14.30;84.90
22173;DHT22;11252;50.596;17.648;2023-04-24T05:01:33;14.20;84.60
22173;DHT22;11252;50.596;17.648;2023-04-24T05:04:00;14.30;83.80
22173;DHT22;11252;50.596;17.648;2023-04-24T05:06:28;14.30;84.00
22173;DHT22;11252;50.596;17.648;2023-04-24T05:08:55;14.30;83.60
22173;DHT22;11252;50.596;17.648;2023-04-24T05:11:24;14.40;83.10
22173;DHT22;11252;50.596;17.648;2023-04-24T05:13:51;14.40;82.60
22173;DHT22;11252;50.596;17.648;2023-04-24T05:16:18;14.40;82.50
22173;DHT22;11252;50.596;17.648;2023-04-24T05:18:45;14.50;82.40
22173;DHT22;11252;50.596;17.648;2023-04-24T05:21:13;14.50;82.80
22173;DHT22;11252;50.596;17.648;2023-04-24T05:23:40;14.60;82.20
22173;DHT22;11252;50.596;17.648;2023-04-24T05:26:07;14.60;82.10
22173;DHT22;11252;50.596;17.648;2023-04-24T05:28:34;14.60;82.10
22173;DHT22;11252;50.596;17.648;2023-04-24T05:31:03;14.60;82.40
22173;DHT22;11252;50.596;17.648;2023-04-24T05:33:31;14.70;82.60
22173;DHT22;11252;50.596;17.648;2023-04-24T05:35:58;14.70;82.30
22173;DHT22;11252;50.596;17.648;2023-04-24T05:38:25;14.70;82.10
22173;DHT22;11252;50.596;17.648;2023-04-24T05:40:53;14.70;81.90
22173;DHT22;11252;50.596;17.648;2023-04-24T05:43:20;14.80;81.90
22173;DHT22;11252;50.596;17.648;2023-04-24T05:45:49;14.80;81.90
22173;DHT22;11252;50.596;17.648;2023-04-24T05:48:16;14.80;81.50
22173;DHT22;11252;50.596;17.648;2023-04-24T05:50:44;14.90;81.80
22173;DHT22;11252;50.596;17.648;2023-04-24T05:53:11;14.90;81.50
22173;DHT22;11252;50.596;17.648;2023-04-24T05:55:39;15.00;81.90
22173;DHT22;11252;50.596;17.648;2023-04-24T05:58:06;15.00;81.80
22173;DHT22;11252;50.596;17.648;2023-04-24T06:00:34;15.00;81.70
22173;DHT22;11252;50.596;17.648;2023-04-24T06:03:01;15.00;81.90
22173;DHT22;11252;50.596;17.648;2023-04-24T06:05:31;15.00;81.50
22173;DHT22;11252;50.596;17.648;2023-04-24T06:07:58;15.00;81.50
22173;DHT22;11252;50.596;17.648;2023-04-24T06:10:26;15.00;82.00
22173;DHT22;11252;50.596;17.648;2023-04-24T06:12:53;15.00;82.20
22173;DHT22;11252;50.596;17.648;2023-04-24T06:15:23;14.90;82.60
22173;DHT22;11252;50.596;17.648;2023-04-24T06:17:50;14.90;83.10
22173;DHT22;11252;50.596;17.648;2023-04-24T06:20:18;14.90;83.10
22173;DHT22;11252;50.596;17.648;2023-04-24T06:22:45;15.00;83.50
22173;DHT22;11252;50.596;17.648;2023-04-24T06:25:13;15.10;83.50
22173;DHT22;11252;50.596;17.648;2023-04-24T06:27:40;15.10;83.80
22173;DHT22;11252;50.596;17.648;2023-04-24T06:30:08;15.00;84.20
22173;DHT22;11252;50.596;17.648;2023-04-24T06:32:36;15.10;85.20
22173;DHT22;11252;50.596;17.648;2023-04-24T06:35:04;15.10;84.70
22173;DHT22;11252;50.596;17.648;2023-04-24T06:37:33;15.10;84.60
22173;DHT22;11252;50.596;17.648;2023-04-24T06:40:01;15.20;84.90
22173;DHT22;11252;50.596;17.648;2023-04-24T06:42:28;15.30;84.30
22173;DHT22;11252;50.596;17.648;2023-04-24T06:44:56;15.30;84.40
22173;DHT22;11252;50.596;17.648;2023-04-24T06:47:23;15.40;84.80
22173;DHT22;11252;50.596;17.648;2023-04-24T06:49:50;15.50;84.10
22173;DHT22;11252;50.596;17.648;2023-04-24T06:52:19;15.50;84.20
22173;DHT22;11252;50.596;17.648;2023-04-24T06:54:47;15.60;84.70
22173;DHT22;11252;50.596;17.648;2023-04-24T06:57:14;15.80;85.30
22173;DHT22;11252;50.596;17.648;2023-04-24T06:59:44;15.90;85.10
22173;DHT22;11252;50.596;17.648;2023-04-24T07:02:11;16.10;84.40
22173;DHT22;11252;50.596;17.648;2023-04-24T07:04:39;16.20;86.10
22173;DHT22;11252;50.596;17.648;2023-04-24T07:07:07;16.30;85.20
22173;DHT22;11252;50.596;17.648;2023-04-24T07:09:36;16.40;85.20
22173;DHT22;11252;50.596;17.648;2023-04-24T07:12:05;16.40;86.00
22173;DHT22;11252;50.596;17.648;2023-04-24T07:14:32;16.50;86.70
22173;DHT22;11252;50.596;17.648;2023-04-24T07:17:00;16.50;85.90
22173;DHT22;11252;50.596;17.648;2023-04-24T07:19:31;16.50;85.70
22173;DHT22;11252;50.596;17.648;2023-04-24T07:21:59;16.50;85.20
22173;DHT22;11252;50.596;17.648;2023-04-24T07:24:27;16.50;84.10
22173;DHT22;11252;50.596;17.648;2023-04-24T07:26:56;16.40;84.90
22173;DHT22;11252;50.596;17.648;2023-04-24T07:29:23;16.40;85.10
22173;DHT22;11252;50.596;17.648;2023-04-24T07:31:51;16.40;85.60
22173;DHT22;11252;50.596;17.648;2023-04-24T07:34:18;16.40;85.70
22173;DHT22;11252;50.596;17.648;2023-04-24T07:36:46;16.50;86.50
22173;DHT22;11252;50.596;17.648;2023-04-24T07:39:14;16.60;86.40
22173;DHT22;11252;50.596;17.648;2023-04-24T07:41:41;16.70;86.10
22173;DHT22;11252;50.596;17.648;2023-04-24T07:44:08;16.70;85.50
22173;DHT22;11252;50.596;17.648;2023-04-24T07:46:35;16.80;86.10
22173;DHT22;11252;50.596;17.648;2023-04-24T07:49:04;16.80;85.80
22173;DHT22;11252;50.596;17.648;2023-04-24T07:51:40;16.90;85.10
22173;DHT22;11252;50.596;17.648;2023-04-24T07:54:08;16.90;85.10
22173;DHT22;11252;50.596;17.648;2023-04-24T07:56:36;17.00;85.30
22173;DHT22;11252;50.596;17.648;2023-04-24T07:59:06;17.00;85.20
22173;DHT22;11252;50.596;17.648;2023-04-24T08:01:34;17.10;84.70
22173;DHT22;11252;50.596;17.648;2023-04-24T08:04:01;17.20;84.70
22173;DHT22;11252;50.596;17.648;2023-04-24T08:06:29;17.30;85.00
22173;DHT22;11252;50.596;17.648;2023-04-24T08:08:58;17.50;84.80
22173;DHT22;11252;50.596;17.648;2023-04-24T08:11:27;17.70;84.50
22173;DHT22;11252;50.596;17.648;2023-04-24T08:13:55;17.80;83.50
22173;DHT22;11252;50.596;17.648;2023-04-24T08:16:22;17.90;82.90
22173;DHT22;11252;50.596;17.648;2023-04-24T08:18:53;17.90;81.60
22173;DHT22;11252;50.596;17.648;2023-04-24T08:21:21;17.80;81.90
22173;DHT22;11252;50.596;17.648;2023-04-24T08:23:48;17.90;82.10
22173;DHT22;11252;50.596;17.648;2023-04-24T08:26:16;18.00;81.60
22173;DHT22;11252;50.596;17.648;2023-04-24T08:28:44;18.00;81.20
22173;DHT22;11252;50.596;17.648;2023-04-24T08:31:11;18.10;81.20
22173;DHT22;11252;50.596;17.648;2023-04-24T08:33:38;18.20;80.60
22173;DHT22;11252;50.596;17.648;2023-04-24T08:36:08;18.10;80.70
22173;DHT22;11252;50.596;17.648;2023-04-24T08:38:35;18.00;81.50
22173;DHT22;11252;50.596;17.648;2023-04-24T08:41:02;18.00;80.40
22173;DHT22;11252;50.596;17.648;2023-04-24T08:43:33;17.70;81.90
22173;DHT22;11252;50.596;17.648;2023-04-24T08:46:01;17.40;82.70
22173;DHT22;11252;50.596;17.648;2023-04-24T08:48:34;17.30;82.70
22173;DHT22;11252;50.596;17.648;2023-04-24T08:51:02;17.20;83.90
22173;DHT22;11252;50.596;17.648;2023-04-24T08:53:33;17.00;83.60
22173;DHT22;11252;50.596;17.648;2023-04-24T08:56:02;17.00;84.30
22173;DHT22;11252;50.596;17.648;2023-04-24T08:58:31;17.20;85.80
22173;DHT22;11252;50.596;17.648;2023-04-24T09:00:58;17.30;83.70
22173;DHT22;11252;50.596;17.648;2023-04-24T09:03:27;17.40;84.10
22173;DHT22;11252;50.596;17.648;2023-04-24T09:05:55;17.40;84.10
22173;DHT22;11252;50.596;17.648;2023-04-24T09:08:25;17.40;82.90
22173;DHT22;11252;50.596;17.648;2023-04-24T09:10:53;17.60;83.90
22173;DHT22;11252;50.596;17.648;2023-04-24T09:13:21;17.70;82.70
22173;DHT22;11252;50.596;17.648;2023-04-24T09:15:48;17.80;82.60
22173;DHT22;11252;50.596;17.648;2023-04-24T09:18:16;17.80;81.50
22173;DHT22;11252;50.596;17.648;2023-04-24T09:21:01;17.90;81.70
22173;DHT22;11252;50.596;17.648;2023-04-24T09:23:31;18.10;82.50
22173;DHT22;11252;50.596;17.648;2023-04-24T09:26:00;18.30;81.40
22173;DHT22;11252;50.596;17.648;2023-04-24T09:28:39;18.50;80.00
22173;DHT22;11252;50.596;17.648;2023-04-24T09:31:13;18.40;79.50
22173;DHT22;11252;50.596;17.648;2023-04-24T09:34:18;18.30;79.60
22173;DHT22;11252;50.596;17.648;2023-04-24T09:36:48;18.40;80.20
22173;DHT22;11252;50.596;17.648;2023-04-24T09:39:16;18.50;78.20
22173;DHT22;11252;50.596;17.648;2023-04-24T09:44:19;18.60;79.10
22173;DHT22;11252;50.596;17.648;2023-04-24T09:46:55;18.60;79.30
22173;DHT22;11252;50.596;17.648;2023-04-24T09:49:28;18.60;79.60
22173;DHT22;11252;50.596;17.648;2023-04-24T09:52:06;18.70;80.30
22173;DHT22;11252;50.596;17.648;2023-04-24T09:54:34;18.80;79.20
22173;DHT22;11252;50.596;17.648;2023-04-24T09:57:04;18.90;79.50
22173;DHT22;11252;50.596;17.648;2023-04-24T09:59:32;18.80;78.20
22173;DHT22;11252;50.596;17.648;2023-04-24T10:02:17;18.50;78.10
22173;DHT22;11252;50.596;17.648;2023-04-24T10:04:55;18.40;78.60
22173;DHT22;11252;50.596;17.648;2023-04-24T10:07:26;18.30;79.40
22173;DHT22;11252;50.596;17.648;2023-04-24T10:09:54;18.20;79.30
22173;DHT22;11252;50.596;17.648;2023-04-24T10:12:23;18.00;79.50
22173;DHT22;11252;50.596;17.648;2023-04-24T10:14:50;17.80;80.70
22173;DHT22;11252;50.596;17.648;2023-04-24T10:17:18;17.60;81.70
22173;DHT22;11252;50.596;17.648;2023-04-24T10:19:48;17.20;85.10
22173;DHT22;11252;50.596;17.648;2023-04-24T10:22:17;16.90;87.70
22173;DHT22;11252;50.596;17.648;2023-04-24T10:24:45;16.60;90.10
22173;DHT22;11252;50.596;17.648;2023-04-24T10:27:14;16.50;90.50
22173;DHT22;11252;50.596;17.648;2023-04-24T10:29:43;16.50;90.60
22173;DHT22;11252;50.596;17.648;2023-04-24T10:32:11;16.50;90.60
22173;DHT22;11252;50.596;17.648;2023-04-24T10:34:39;16.40;91.50
22173;DHT22;11252;50.596;17.648;2023-04-24T10:37:06;16.40;92.10
22173;DHT22;11252;50.596;17.648;2023-04-24T10:39:34;16.40;91.40
22173;DHT22;11252;50.596;17.648;2023-04-24T10:42:02;16.40;92.10
22173;DHT22;11252;50.596;17.648;2023-04-24T10:44:41;16.30;91.20
22173;DHT22;11252;50.596;17.648;2023-04-24T10:47:13;16.10;92.20
22173;DHT22;11252;50.596;17.648;2023-04-24T10:49:43;15.80;92.20
22173;DHT22;11252;50.596;17.648;2023-04-24T10:52:11;15.40;92.20
22173;DHT22;11252;50.596;17.648;2023-04-24T10:54:44;14.90;92.20
22173;DHT22;11252;50.596;17.648;2023-04-24T11:02:56;14.10;92.20
22173;DHT22;11252;50.596;17.648;2023-04-24T11:06:06;14.00;92.20
22173;DHT22;11252;50.596;17.648;2023-04-24T11:08:43;13.90;92.20
22173;DHT22;11252;50.596;17.648;2023-04-24T11:11:17;13.80;92.20
22173;DHT22;11252;50.596;17.648;2023-04-24T11:16:39;13.60;92.20
22173;DHT22;11252;50.596;17.648;2023-04-24T11:21:59;13.20;92.20
22173;DHT22;11252;50.596;17.648;2023-04-24T11:24:49;13.10;92.20
22173;DHT22;11252;50.596;17.648;2023-04-24T11:27:19;12.90;92.20
22173;DHT22;11252;50.596;17.648;2023-04-24T11:32:41;12.80;92.20
22173;DHT22;11252;50.596;17.648;2023-04-24T11:35:19;12.80;92.20
22173;DHT22;11252;50.596;17.648;2023-04-24T11:37:48;12.80;92.20
22173;DHT22;11252;50.596;17.648;2023-04-24T11:40:20;12.90;92.20
22173;DHT22;11252;50.596;17.648;2023-04-24T11:42:51;12.90;92.20
22173;DHT22;11252;50.596;17.648;2023-04-24T11:45:23;12.90;92.20
22173;DHT22;11252;50.596;17.648;2023-04-24T11:47:51;13.00;92.20
22173;DHT22;11252;50.596;17.648;2023-04-24T11:50:22;12.90;92.20
22173;DHT22;11252;50.596;17.648;2023-04-24T11:52:50;12.90;92.20
22173;DHT22;11252;50.596;17.648;2023-04-24T11:57:47;12.90;92.20
22173;DHT22;11252;50.596;17.648;2023-04-24T12:00:22;12.90;92.20
22173;DHT22;11252;50.596;17.648;2023-04-24T12:02:51;12.90;92.20
22173;DHT22;11252;50.596;17.648;2023-04-24T12:05:28;12.90;92.20
22173;DHT22;11252;50.596;17.648;2023-04-24T12:07:59;12.90;92.20
22173;DHT22;11252;50.596;17.648;2023-04-24T12:10:28;12.90;92.20
22173;DHT22;11252;50.596;17.648;2023-04-24T12:12:57;13.00;92.20
22173;DHT22;11252;50.596;17.648;2023-04-24T12:15:25;13.00;92.20
22173;DHT22;11252;50.596;17.648;2023-04-24T12:17:53;13.00;92.20
22173;DHT22;11252;50.596;17.648;2023-04-24T12:20:29;13.00;92.20
22173;DHT22;11252;50.596;17.648;2023-04-24T12:22:58;13.00;92.20
22173;DHT22;11252;50.596;17.648;2023-04-24T12:25:30;13.00;92.20
22173;DHT22;11252;50.596;17.648;2023-04-24T12:30:34;13.00;92.20
22173;DHT22;11252;50.596;17.648;2023-04-24T12:33:03;13.00;92.20
22173;DHT22;11252;50.596;17.648;2023-04-24T12:35:32;13.00;92.20
22173;DHT22;11252;50.596;17.648;2023-04-24T12:38:11;13.00;92.20
22173;DHT22;11252;50.596;17.648;2023-04-24T12:40:41;13.00;92.20
22173;DHT22;11252;50.596;17.648;2023-04-24T12:43:19;13.10;92.20
22173;DHT22;11252;50.596;17.648;2023-04-24T12:45:48;13.20;92.20
22173;DHT22;11252;50.596;17.648;2023-04-24T12:48:16;13.20;92.20
22173;DHT22;11252;50.596;17.648;2023-04-24T12:50:44;13.10;92.20
22173;DHT22;11252;50.596;17.648;2023-04-24T12:53:13;13.10;92.20
22173;DHT22;11252;50.596;17.648;2023-04-24T12:55:41;13.10;92.20
22173;DHT22;11252;50.596;17.648;2023-04-24T12:58:08;13.10;92.20
22173;DHT22;11252;50.596;17.648;2023-04-24T13:00:35;13.00;92.20
22173;DHT22;11252;50.596;17.648;2023-04-24T13:03:04;13.00;92.20
22173;DHT22;11252;50.596;17.648;2023-04-24T13:05:31;13.00;92.20
22173;DHT22;11252;50.596;17.648;2023-04-24T13:07:59;13.00;92.20
22173;DHT22;11252;50.596;17.648;2023-04-24T13:10:27;13.00;92.20
22173;DHT22;11252;50.596;17.648;2023-04-24T13:12:54;12.90;92.20
22173;DHT22;11252;50.596;17.648;2023-04-24T13:15:22;12.90;92.20
22173;DHT22;11252;50.596;17.648;2023-04-24T13:17:51;12.90;92.20
22173;DHT22;11252;50.596;17.648;2023-04-24T13:20:19;12.90;92.20
22173;DHT22;11252;50.596;17.648;2023-04-24T13:22:46;12.90;92.20
22173;DHT22;11252;50.596;17.648;2023-04-24T13:25:14;12.90;92.20
22173;DHT22;11252;50.596;17.648;2023-04-24T13:27:44;12.90;92.20
22173;DHT22;11252;50.596;17.648;2023-04-24T13:30:11;12.90;92.20
22173;DHT22;11252;50.596;17.648;2023-04-24T13:32:39;12.80;92.20
22173;DHT22;11252;50.596;17.648;2023-04-24T13:35:07;12.90;92.20
22173;DHT22;11252;50.596;17.648;2023-04-24T13:37:35;12.90;92.20
22173;DHT22;11252;50.596;17.648;2023-04-24T13:40:03;12.90;92.20
22173;DHT22;11252;50.596;17.648;2023-04-24T13:42:33;12.90;92.20
22173;DHT22;11252;50.596;17.648;2023-04-24T13:45:01;12.90;92.20
22173;DHT22;11252;50.596;17.648;2023-04-24T13:47:48;12.90;92.20
22173;DHT22;11252;50.596;17.648;2023-04-24T13:50:18;12.90;92.20
22173;DHT22;11252;50.596;17.648;2023-04-24T13:52:45;12.90;92.20
22173;DHT22;11252;50.596;17.648;2023-04-24T13:55:12;13.00;92.20
22173;DHT22;11252;50.596;17.648;2023-04-24T13:57:40;13.00;92.20
22173;DHT22;11252;50.596;17.648;2023-04-24T14:00:08;13.10;92.20
22173;DHT22;11252;50.596;17.648;2023-04-24T14:02:37;13.10;92.20
22173;DHT22;11252;50.596;17.648;2023-04-24T14:05:05;13.00;92.20
22173;DHT22;11252;50.596;17.648;2023-04-24T14:07:33;13.10;92.20
22173;DHT22;11252;50.596;17.648;2023-04-24T14:10:01;13.10;92.20
22173;DHT22;11252;50.596;17.648;2023-04-24T14:12:28;13.00;92.20
22173;DHT22;11252;50.596;17.648;2023-04-24T14:14:56;13.00;92.20
22173;DHT22;11252;50.596;17.648;2023-04-24T14:17:24;13.00;92.20
22173;DHT22;11252;50.596;17.648;2023-04-24T14:19:51;13.10;92.20
22173;DHT22;11252;50.596;17.648;2023-04-24T14:22:19;13.10;92.20
22173;DHT22;11252;50.596;17.648;2023-04-24T14:24:47;13.10;92.20
22173;DHT22;11252;50.596;17.648;2023-04-24T14:27:14;13.10;92.20
22173;DHT22;11252;50.596;17.648;2023-04-24T14:29:41;13.10;92.20
22173;DHT22;11252;50.596;17.648;2023-04-24T14:32:09;13.10;92.20
22173;DHT22;11252;50.596;17.648;2023-04-24T14:34:36;13.10;92.20
22173;DHT22;11252;50.596;17.648;2023-04-24T14:37:03;13.10;92.20
22173;DHT22;11252;50.596;17.648;2023-04-24T14:39:31;13.00;92.20
22173;DHT22;11252;50.596;17.648;2023-04-24T14:42:00;13.00;92.20
22173;DHT22;11252;50.596;17.648;2023-04-24T14:44:30;12.90;92.20
22173;DHT22;11252;50.596;17.648;2023-04-24T14:46:59;12.90;92.20
22173;DHT22;11252;50.596;17.648;2023-04-24T14:49:27;12.90;92.20
22173;DHT22;11252;50.596;17.648;2023-04-24T14:51:54;13.00;92.20
22173;DHT22;11252;50.596;17.648;2023-04-24T14:54:21;12.90;92.20
22173;DHT22;11252;50.596;17.648;2023-04-24T14:56:50;12.90;92.20
22173;DHT22;11252;50.596;17.648;2023-04-24T14:59:17;12.90;92.20
22173;DHT22;11252;50.596;17.648;2023-04-24T15:01:45;12.90;92.20
22173;DHT22;11252;50.596;17.648;2023-04-24T15:04:12;13.00;92.20
22173;DHT22;11252;50.596;17.648;2023-04-24T15:06:39;13.00;92.20
22173;DHT22;11252;50.596;17.648;2023-04-24T15:09:07;13.10;92.20
22173;DHT22;11252;50.596;17.648;2023-04-24T15:11:34;13.10;92.20
22173;DHT22;11252;50.596;17.648;2023-04-24T15:14:01;13.10;92.20
22173;DHT22;11252;50.596;17.648;2023-04-24T15:16:29;13.10;92.20
22173;DHT22;11252;50.596;17.648;2023-04-24T15:18:56;13.10;92.20
22173;DHT22;11252;50.596;17.648;2023-04-24T15:21:24;13.10;92.20
22173;DHT22;11252;50.596;17.648;2023-04-24T15:23:52;13.10;92.20
22173;DHT22;11252;50.596;17.648;2023-04-24T15:26:19;13.10;92.20
22173;DHT22;11252;50.596;17.648;2023-04-24T15:28:49;13.20;92.20
22173;DHT22;11252;50.596;17.648;2023-04-24T15:31:18;13.20;92.20
22173;DHT22;11252;50.596;17.648;2023-04-24T15:33:46;13.30;92.20
22173;DHT22;11252;50.596;17.648;2023-04-24T15:36:14;13.30;92.20
22173;DHT22;11252;50.596;17.648;2023-04-24T15:38:43;13.30;92.20
22173;DHT22;11252;50.596;17.648;2023-04-24T15:41:11;13.30;92.20
22173;DHT22;11252;50.596;17.648;2023-04-24T15:43:38;13.20;92.20
22173;DHT22;11252;50.596;17.648;2023-04-24T15:46:08;13.20;92.20